createdAt,value
2022-08-23T00:02:05.840Z,2.20
2022-08-23T00:04:53.237Z,1.98
2022-08-23T00:07:38.046Z,2.28
2022-08-23T00:10:05.271Z,2.15
2022-08-23T00:12:31.672Z,2.13
2022-08-23T00:14:58.467Z,2.30
2022-08-23T00:17:33.863Z,2.15
2022-08-23T00:20:06.384Z,1.90
2022-08-23T00:22:32.939Z,2.10
2022-08-23T00:24:59.284Z,1.90
2022-08-23T00:27:26.864Z,1.90
2022-08-23T00:29:54.814Z,2.08
2022-08-23T00:32:24.676Z,2.33
2022-08-23T00:34:51.525Z,1.98
2022-08-23T00:37:18.962Z,2.10
2022-08-23T00:39:45.812Z,2.30
2022-08-23T00:42:33.495Z,2.08
2022-08-23T00:45:21.288Z,1.95
2022-08-23T00:47:48.322Z,2.00
2022-08-23T00:50:24.203Z,2.13
2022-08-23T00:53:16.254Z,2.13
2022-08-23T00:55:45.916Z,2.35
2022-08-23T00:58:14.527Z,2.03
2022-08-23T01:00:41.115Z,1.90
2022-08-23T01:03:09.803Z,2.20
2022-08-23T01:05:46.621Z,2.20
2022-08-23T01:08:13.167Z,2.15
2022-08-23T01:10:47.256Z,2.50
2022-08-23T01:13:24.645Z,2.10
2022-08-23T01:16:11.874Z,1.95
2022-08-23T01:18:39.611Z,2.30
2022-08-23T01:21:20.714Z,2.13
2022-08-23T01:23:55.471Z,3.35
2022-08-23T01:26:24.903Z,2.33
2022-08-23T01:28:53.935Z,2.15
2022-08-23T01:31:23.184Z,2.28
2022-08-23T01:33:56.811Z,2.28
2022-08-23T01:36:23.337Z,2.08
2022-08-23T01:38:49.792Z,2.47
2022-08-23T01:41:16.299Z,3.15
2022-08-23T01:43:42.710Z,1.95
2022-08-23T01:46:11.887Z,2.00
2022-08-23T01:48:38.572Z,1.95
2022-08-23T01:51:05.678Z,2.00
2022-08-23T01:53:32.109Z,2.25
2022-08-23T01:56:01.475Z,2.10
2022-08-23T01:58:31.106Z,1.90
2022-08-23T02:00:57.755Z,2.03
2022-08-23T02:03:24.522Z,1.90
2022-08-23T02:08:40.787Z,2.30
2022-08-23T02:11:16.568Z,2.63
2022-08-23T02:13:44.186Z,2.70
2022-08-23T02:16:10.973Z,2.35
2022-08-23T02:18:41.558Z,2.20
2022-08-23T02:21:09.574Z,2.20
2022-08-23T02:23:35.911Z,2.10
2022-08-23T02:26:02.307Z,2.30
2022-08-23T02:28:28.703Z,2.30
2022-08-23T02:30:55.079Z,2.15
2022-08-23T02:33:22.172Z,2.53
2022-08-23T02:35:49.970Z,1.90
2022-08-23T02:38:18.074Z,2.28
2022-08-23T02:40:44.586Z,3.42
2022-08-23T02:43:12.052Z,2.05
2022-08-23T02:45:38.956Z,2.13
2022-08-23T02:48:05.878Z,2.17
2022-08-23T02:50:32.343Z,2.10
2022-08-23T02:52:58.977Z,2.55
2022-08-23T02:55:25.414Z,2.63
2022-08-23T02:57:52.114Z,2.10
2022-08-23T03:00:19.531Z,2.90
2022-08-23T03:02:46.124Z,2.45
2022-08-23T03:05:14.787Z,2.20
2022-08-23T03:07:41.252Z,2.10
2022-08-23T03:10:09.190Z,2.28
2022-08-23T03:12:35.807Z,2.38
2022-08-23T03:15:03.594Z,2.60
2022-08-23T03:17:32.273Z,3.22
2022-08-23T03:19:58.638Z,2.30
2022-08-23T03:22:25.155Z,2.55
2022-08-23T03:24:51.578Z,2.25
2022-08-23T03:27:17.977Z,2.50
2022-08-23T03:29:44.340Z,2.60
2022-08-23T03:32:10.692Z,2.22
2022-08-23T03:34:37.131Z,2.47
2022-08-23T03:37:03.879Z,2.33
2022-08-23T03:39:30.270Z,2.40
2022-08-23T03:41:56.700Z,2.83
2022-08-23T03:44:23.168Z,2.40
2022-08-23T03:46:50.436Z,2.25
2022-08-23T03:49:17.046Z,2.42
2022-08-23T03:51:43.469Z,2.38
2022-08-23T03:54:10.305Z,2.35
2022-08-23T03:56:40.051Z,2.58
2022-08-23T03:59:09.164Z,2.58
2022-08-23T04:01:36.515Z,2.33
2022-08-23T04:04:03.298Z,2.65
2022-08-23T04:06:29.855Z,2.13
2022-08-23T04:08:56.555Z,2.53
2022-08-23T04:11:23.847Z,2.15
2022-08-23T04:13:50.428Z,2.80
2022-08-23T04:16:18.867Z,3.00
2022-08-23T04:18:45.808Z,2.85
2022-08-23T04:21:16.920Z,2.70
2022-08-23T04:23:43.351Z,2.40
2022-08-23T04:26:10.224Z,2.50
2022-08-23T04:28:37.029Z,2.85
2022-08-23T04:31:04.579Z,2.38
2022-08-23T04:33:32.766Z,2.50
2022-08-23T04:36:00.217Z,2.38
2022-08-23T04:38:27.387Z,3.25
2022-08-23T04:41:12.855Z,2.63
2022-08-23T04:43:40.423Z,2.80
2022-08-23T04:46:07.475Z,2.75
2022-08-23T04:48:35.268Z,2.83
2022-08-23T04:51:01.876Z,2.50
2022-08-23T04:53:30.325Z,2.60
2022-08-23T04:55:56.847Z,2.20
2022-08-23T04:58:23.235Z,2.63
2022-08-23T05:00:51.765Z,2.47
2022-08-23T05:03:18.452Z,2.80
2022-08-23T05:05:44.866Z,2.60
2022-08-23T05:08:11.455Z,2.45
2022-08-23T05:10:38.218Z,2.40
2022-08-23T05:13:04.631Z,2.60
2022-08-23T05:15:31.048Z,2.33
2022-08-23T05:17:57.554Z,2.58
2022-08-23T05:20:24.088Z,3.03
2022-08-23T05:22:50.450Z,2.75
2022-08-23T05:25:16.934Z,2.50
2022-08-23T05:27:44.330Z,2.55
2022-08-23T05:30:15.367Z,2.90
2022-08-23T05:32:42.284Z,2.80
2022-08-23T05:35:08.982Z,2.58
2022-08-23T05:37:35.369Z,2.40
2022-08-23T05:40:02.050Z,3.00
2022-08-23T05:42:28.524Z,2.80
2022-08-23T05:44:55.414Z,3.53
2022-08-23T05:47:23.676Z,2.80
2022-08-23T05:49:51.645Z,2.72
2022-08-23T05:52:18.013Z,3.00
2022-08-23T05:54:44.482Z,2.97
2022-08-23T05:57:11.309Z,2.97
2022-08-23T05:59:37.649Z,3.17
2022-08-23T06:02:04.390Z,3.22
2022-08-23T06:04:31.010Z,3.30
2022-08-23T06:06:58.793Z,3.45
2022-08-23T06:09:26.222Z,2.90
2022-08-23T06:11:53.033Z,3.13
2022-08-23T06:14:19.894Z,3.08
2022-08-23T06:16:54.865Z,3.35
2022-08-23T06:19:23.669Z,2.78
2022-08-23T06:21:51.265Z,2.65
2022-08-23T06:24:18.275Z,2.42
2022-08-23T06:26:45.361Z,3.00
2022-08-23T06:29:14.664Z,2.60
2022-08-23T06:31:47.509Z,2.53
2022-08-23T06:34:24.055Z,2.90
2022-08-23T06:36:56.358Z,3.00
2022-08-23T06:39:26.196Z,2.60
2022-08-23T06:41:53.622Z,2.28
2022-08-23T06:44:20.451Z,2.65
2022-08-23T06:46:49.208Z,3.22
2022-08-23T06:49:15.990Z,2.58
2022-08-23T06:51:46.369Z,2.25
2022-08-23T06:54:15.192Z,2.50
2022-08-23T06:56:43.496Z,2.50
2022-08-23T06:59:10.439Z,2.25
2022-08-23T07:01:47.974Z,2.40
2022-08-23T07:07:16.557Z,2.60
2022-08-23T07:09:42.935Z,2.35
2022-08-23T07:12:10.833Z,2.08
2022-08-23T07:14:38.252Z,2.75
2022-08-23T07:17:05.268Z,2.50
2022-08-23T07:19:34.370Z,2.40
2022-08-23T07:22:02.323Z,2.65
2022-08-23T07:24:33.303Z,2.35
2022-08-23T07:27:06.164Z,2.70
2022-08-23T07:29:33.140Z,2.20
2022-08-23T07:31:59.599Z,2.00
2022-08-23T07:34:26.428Z,2.60
2022-08-23T07:36:53.894Z,2.20
2022-08-23T07:39:22.139Z,2.17
2022-08-23T07:41:49.503Z,2.70
2022-08-23T07:44:18.189Z,2.30
2022-08-23T07:46:46.009Z,2.15
2022-08-23T07:49:13.115Z,1.98
2022-08-23T07:51:41.865Z,1.92
2022-08-23T07:54:10.403Z,2.70
2022-08-23T07:56:37.601Z,2.00
2022-08-23T07:59:05.147Z,2.10
2022-08-23T08:01:31.639Z,2.30
2022-08-23T08:04:00.279Z,2.50
2022-08-23T08:07:04.752Z,2.10
2022-08-23T08:09:36.241Z,2.17
2022-08-23T08:12:03.168Z,2.40
2022-08-23T08:14:29.547Z,2.60
2022-08-23T08:16:58.684Z,2.25
2022-08-23T08:19:25.527Z,2.30
2022-08-23T08:21:51.998Z,2.13
2022-08-23T08:24:18.973Z,2.40
2022-08-23T08:26:47.042Z,2.70
2022-08-23T08:29:14.063Z,2.13
2022-08-23T08:31:43.138Z,2.65
2022-08-23T08:34:10.114Z,2.13
2022-08-23T08:36:45.484Z,2.30
2022-08-23T08:39:14.872Z,2.53
2022-08-23T08:42:05.284Z,2.13
2022-08-23T08:44:49.667Z,2.13
2022-08-23T08:47:36.347Z,1.90
2022-08-23T08:50:28.390Z,2.10
2022-08-23T08:53:05.175Z,2.40
2022-08-23T08:56:00.631Z,2.60
2022-08-23T09:00:56.849Z,2.25
2022-08-23T09:03:34.177Z,2.40
2022-08-23T09:06:18.994Z,2.30
2022-08-23T09:09:09.828Z,2.30
2022-08-23T09:12:01.265Z,2.50
2022-08-23T09:15:21.212Z,2.45
2022-08-23T09:17:54.598Z,2.78
2022-08-23T09:22:58.108Z,2.22
2022-08-23T09:25:24.890Z,2.35
2022-08-23T09:27:51.248Z,2.47
2022-08-23T09:30:20.066Z,2.28
2022-08-23T09:32:50.117Z,2.28
2022-08-23T09:35:26.202Z,2.20
2022-08-23T09:38:21.148Z,2.25
2022-08-23T09:40:50.595Z,2.30
2022-08-23T09:43:25.963Z,2.25
2022-08-23T09:45:52.286Z,2.42
2022-08-23T09:48:39.863Z,2.35
2022-08-23T09:51:17.527Z,2.40
2022-08-23T09:53:50.120Z,2.30
2022-08-23T09:56:23.445Z,2.55
2022-08-23T09:58:53.433Z,2.10
2022-08-23T10:01:28.437Z,2.60
2022-08-23T10:04:22.600Z,2.35
2022-08-23T10:06:49.261Z,2.30
2022-08-23T10:09:28.094Z,2.53
2022-08-23T10:11:56.718Z,2.33
2022-08-23T10:14:28.677Z,2.58
2022-08-23T10:17:30.929Z,2.30
2022-08-23T10:20:21.544Z,2.15
2022-08-23T10:23:15.314Z,2.30
2022-08-23T10:26:01.945Z,2.40
2022-08-23T10:29:03.720Z,2.80
2022-08-23T10:31:39.620Z,2.40
2022-08-23T10:34:34.116Z,2.50
2022-08-23T10:37:22.142Z,2.40
2022-08-23T10:40:03.979Z,2.72
2022-08-23T10:42:33.638Z,2.20
2022-08-23T10:45:09.367Z,2.10
2022-08-23T10:47:41.267Z,2.50
2022-08-23T10:50:19.264Z,2.58
2022-08-23T10:53:04.979Z,2.60
2022-08-23T10:55:54.623Z,2.50
2022-08-23T10:58:27.140Z,2.80
2022-08-23T11:00:58.531Z,2.20
2022-08-23T11:03:31.680Z,2.42
2022-08-23T11:06:35.346Z,2.55
2022-08-23T11:09:22.434Z,2.30
2022-08-23T11:12:14.101Z,2.40
2022-08-23T11:14:45.523Z,2.40
2022-08-23T11:17:25.205Z,2.30
2022-08-23T11:19:59.123Z,2.50
2022-08-23T11:22:32.475Z,2.45
2022-08-23T11:24:58.792Z,2.40
2022-08-23T11:27:46.008Z,2.67
2022-08-23T11:30:36.956Z,2.33
2022-08-23T11:33:16.677Z,2.65
2022-08-23T11:35:48.248Z,2.55
2022-08-23T11:38:15.679Z,2.20
2022-08-23T11:40:51.698Z,2.20
2022-08-23T11:43:38.007Z,2.30
2022-08-23T11:46:23.049Z,2.33
2022-08-23T11:49:04.653Z,2.95
2022-08-23T11:51:40.273Z,2.20
2022-08-23T11:54:57.331Z,2.53
2022-08-23T11:57:37.490Z,2.40
2022-08-23T12:00:14.669Z,1.98
2022-08-23T12:03:13.263Z,2.20
2022-08-23T12:06:02.805Z,2.25
2022-08-23T12:08:50.295Z,2.45
2022-08-23T12:11:19.154Z,2.47
2022-08-23T12:13:48.372Z,2.40
2022-08-23T12:16:16.211Z,2.70
2022-08-23T12:18:50.608Z,2.40
2022-08-23T12:21:23.527Z,2.30
2022-08-23T12:23:56.711Z,2.42
2022-08-23T12:26:42.376Z,2.40
2022-08-23T12:29:18.938Z,2.30
2022-08-23T12:32:10.159Z,2.45
2022-08-23T12:34:51.255Z,2.20
2022-08-23T12:37:48.139Z,1.95
2022-08-23T12:40:32.446Z,2.28
2022-08-23T12:43:21.223Z,2.30
2022-08-23T12:45:52.677Z,2.40
2022-08-23T12:48:23.501Z,2.47
2022-08-23T12:51:02.821Z,2.47
2022-08-23T12:53:36.344Z,2.38
2022-08-23T12:56:14.203Z,2.08
2022-08-23T12:58:46.424Z,2.30
2022-08-23T13:01:26.398Z,2.80
2022-08-23T13:04:08.176Z,2.30
2022-08-23T13:06:42.982Z,2.30
2022-08-23T13:09:17.506Z,2.47
2022-08-23T13:11:45.604Z,2.70
2022-08-23T13:14:22.455Z,1.90
2022-08-23T13:16:51.536Z,2.22
2022-08-23T13:19:22.180Z,2.50
2022-08-23T13:21:51.223Z,2.40
2022-08-23T13:24:31.410Z,2.28
2022-08-23T13:27:18.457Z,2.10
2022-08-23T13:30:10.524Z,2.15
2022-08-23T13:32:36.893Z,2.40
2022-08-23T13:35:23.820Z,2.00
2022-08-23T13:37:52.311Z,2.33
2022-08-23T13:40:29.628Z,2.80
2022-08-23T13:43:04.324Z,2.00
2022-08-23T13:45:34.526Z,2.00
2022-08-23T13:48:19.786Z,1.90
2022-08-23T13:50:46.846Z,2.15
2022-08-23T13:53:15.559Z,2.67
2022-08-23T13:56:02.452Z,2.30
2022-08-23T13:58:31.876Z,2.50
2022-08-23T14:01:00.806Z,2.15
2022-08-23T14:03:29.037Z,2.60
2022-08-23T14:05:55.596Z,2.20
2022-08-23T14:08:22.750Z,2.08
2022-08-23T14:10:49.705Z,2.38
2022-08-23T14:13:18.228Z,2.40
2022-08-23T14:18:33.471Z,2.40
2022-08-23T14:21:00.269Z,2.25
2022-08-23T14:23:26.875Z,2.03
2022-08-23T14:25:55.712Z,2.15
2022-08-23T14:28:24.894Z,2.30
2022-08-23T14:30:51.538Z,2.25
2022-08-23T14:33:19.832Z,2.30
2022-08-23T14:35:46.184Z,2.55
2022-08-23T14:38:14.966Z,2.15
2022-08-23T14:40:53.851Z,2.22
2022-08-23T14:43:21.718Z,2.20
2022-08-23T14:45:49.222Z,1.98
2022-08-23T14:48:16.525Z,2.13
2022-08-23T14:50:44.271Z,2.00
2022-08-23T14:53:12.259Z,1.88
2022-08-23T14:55:38.607Z,2.58
2022-08-23T14:58:04.958Z,2.30
2022-08-23T15:00:32.483Z,2.20
2022-08-23T15:02:59.209Z,1.70
2022-08-23T15:05:25.606Z,1.95
2022-08-23T15:07:52.222Z,1.75
2022-08-23T15:13:28.325Z,1.80
2022-08-23T15:15:52.435Z,1.92
2022-08-23T15:18:19.585Z,1.90
2022-08-23T15:20:46.225Z,1.90
2022-08-23T15:23:12.695Z,2.00
2022-08-23T15:25:41.159Z,2.22
2022-08-23T15:28:12.896Z,1.70
2022-08-23T15:30:40.652Z,1.70
2022-08-23T15:33:07.230Z,1.88
2022-08-23T15:35:43.293Z,2.10
2022-08-23T15:38:12.765Z,1.58
2022-08-23T15:40:39.884Z,1.98
2022-08-23T15:43:06.464Z,1.85
2022-08-23T15:45:33.884Z,2.03
2022-08-23T15:48:04.364Z,1.85
2022-08-23T15:50:33.877Z,2.00
2022-08-23T15:53:01.143Z,1.90
2022-08-23T15:55:31.369Z,1.98
2022-08-23T15:57:58.668Z,1.85
2022-08-23T16:00:26.520Z,2.00
2022-08-23T16:03:18.748Z,2.10
2022-08-23T16:05:43.360Z,1.80
2022-08-23T16:08:20.732Z,1.95
2022-08-23T16:10:47.147Z,2.13
2022-08-23T16:13:13.927Z,2.10
2022-08-23T16:15:40.360Z,2.08
2022-08-23T16:18:07.400Z,2.00
2022-08-23T16:20:33.960Z,1.73
2022-08-23T16:23:00.527Z,1.98
2022-08-23T16:25:27.136Z,1.70
2022-08-23T16:27:53.525Z,2.42
2022-08-23T16:30:19.886Z,1.85
2022-08-23T16:32:46.480Z,1.85
2022-08-23T16:35:13.884Z,2.03
2022-08-23T16:37:40.213Z,2.00
2022-08-23T16:40:09.134Z,1.90
2022-08-23T16:42:35.578Z,2.55
2022-08-23T16:45:02.002Z,2.30
2022-08-23T16:47:31.297Z,1.85
2022-08-23T16:49:57.748Z,1.95
2022-08-23T16:52:24.843Z,2.00
2022-08-23T16:55:06.057Z,1.85
2022-08-23T16:57:33.388Z,1.95
2022-08-23T16:59:59.756Z,1.90
2022-08-23T17:02:29.919Z,1.90
2022-08-23T17:04:57.477Z,1.85
2022-08-23T17:07:24.319Z,1.95
2022-08-23T17:09:50.735Z,2.05
2022-08-23T17:12:17.883Z,2.72
2022-08-23T17:14:45.424Z,2.20
2022-08-23T17:17:12.820Z,2.92
2022-08-23T17:19:40.663Z,3.20
2022-08-23T17:22:07.425Z,2.65
2022-08-23T17:24:33.944Z,3.13
2022-08-23T17:27:00.663Z,3.53
2022-08-23T17:29:27.568Z,7.60
2022-08-23T17:31:57.503Z,2.28
2022-08-23T17:34:23.975Z,2.97
2022-08-23T17:36:52.994Z,2.40
2022-08-23T17:39:23.108Z,4.00
2022-08-23T17:41:49.502Z,3.88
2022-08-23T17:44:15.927Z,3.20
2022-08-23T17:46:44.706Z,4.97
2022-08-23T17:49:12.061Z,3.22
2022-08-23T17:51:40.972Z,2.83
2022-08-23T17:54:08.801Z,5.57
2022-08-23T17:56:35.551Z,3.85
2022-08-23T17:59:01.896Z,4.35
2022-08-23T18:01:28.398Z,4.03
2022-08-23T18:03:54.835Z,4.40
2022-08-23T18:06:22.185Z,3.22
2022-08-23T18:08:48.883Z,2.80
2022-08-23T18:11:15.762Z,2.90
2022-08-23T18:13:42.379Z,3.55
2022-08-23T18:16:08.888Z,3.30
2022-08-23T18:18:35.425Z,2.80
2022-08-23T18:21:09.607Z,3.58
2022-08-23T18:23:36.008Z,2.80
2022-08-23T18:26:30.607Z,2.50
2022-08-23T18:28:58.042Z,2.55
2022-08-23T18:31:26.866Z,2.10
2022-08-23T18:33:58.356Z,2.58
2022-08-23T18:36:28.469Z,2.30
2022-08-23T18:38:54.914Z,3.17
2022-08-23T18:41:21.375Z,3.72
2022-08-23T18:43:47.970Z,2.85
2022-08-23T18:46:14.422Z,2.80
2022-08-23T18:48:41.165Z,2.33
2022-08-23T18:51:13.960Z,2.53
2022-08-23T18:53:44.766Z,4.53
2022-08-23T18:56:11.193Z,4.50
2022-08-23T18:58:37.527Z,5.10
2022-08-23T19:01:31.860Z,4.38
2022-08-23T19:04:00.068Z,3.80
2022-08-23T19:06:27.286Z,3.83
2022-08-23T19:08:54.301Z,3.85
2022-08-23T19:11:22.119Z,4.78
2022-08-23T19:13:50.882Z,3.60
2022-08-23T19:16:18.646Z,3.00
2022-08-23T19:18:46.459Z,2.92
2022-08-23T19:21:15.372Z,2.65
2022-08-23T19:23:42.106Z,2.95
2022-08-23T19:26:10.454Z,2.63
2022-08-23T19:28:37.508Z,2.53
2022-08-23T19:31:05.152Z,2.60
2022-08-23T19:33:32.135Z,2.55
2022-08-23T19:35:58.892Z,2.50
2022-08-23T19:38:27.581Z,2.92
2022-08-23T19:40:55.193Z,2.50
2022-08-23T19:43:22.411Z,2.40
2022-08-23T19:45:48.913Z,2.22
2022-08-23T19:48:15.305Z,2.33
2022-08-23T19:50:41.673Z,2.30
2022-08-23T19:53:08.724Z,2.60
2022-08-23T19:55:39.548Z,2.60
2022-08-23T19:58:05.886Z,2.58
2022-08-23T20:00:34.006Z,3.10
2022-08-23T20:03:00.744Z,2.60
2022-08-23T20:05:27.552Z,2.75
2022-08-23T20:07:54.679Z,2.65
2022-08-23T20:10:21.819Z,2.28
2022-08-23T20:12:48.163Z,2.40
2022-08-23T20:15:14.628Z,3.03
2022-08-23T20:17:41.361Z,3.03
2022-08-23T20:20:09.840Z,2.70
2022-08-23T20:22:54.867Z,2.97
2022-08-23T20:25:21.239Z,3.17
2022-08-23T20:27:48.378Z,4.07
2022-08-23T20:30:15.043Z,3.33
2022-08-23T20:32:42.453Z,2.80
2022-08-23T20:35:10.156Z,2.85
2022-08-23T20:37:37.209Z,2.97
2022-08-23T20:40:05.884Z,2.88
2022-08-23T20:42:32.382Z,3.08
2022-08-23T20:44:58.744Z,3.42
2022-08-23T20:47:25.264Z,3.10
2022-08-23T20:49:51.772Z,2.55
2022-08-23T20:52:18.253Z,2.83
2022-08-23T20:54:45.789Z,2.72
2022-08-23T20:57:12.168Z,2.70
2022-08-23T20:59:43.676Z,3.20
2022-08-23T21:02:11.024Z,3.20
2022-08-23T21:04:37.804Z,3.55
2022-08-23T21:07:06.623Z,3.53
2022-08-23T21:09:34.062Z,3.22
2022-08-23T21:12:00.423Z,3.08
2022-08-23T21:14:26.770Z,3.03
2022-08-23T21:16:53.280Z,3.30
2022-08-23T21:19:19.740Z,2.88
2022-08-23T21:21:46.850Z,2.90
2022-08-23T21:24:13.543Z,3.20
2022-08-23T21:26:40.874Z,2.80
2022-08-23T21:29:08.568Z,2.97
2022-08-23T21:31:35.525Z,3.30
2022-08-23T21:34:01.989Z,3.13
2022-08-23T21:36:28.750Z,3.00
2022-08-23T21:38:55.394Z,3.15
2022-08-23T21:41:29.721Z,2.67
2022-08-23T21:43:56.140Z,3.20
2022-08-23T21:46:22.970Z,3.03
2022-08-23T21:48:49.368Z,2.80
2022-08-23T21:51:15.857Z,3.30
2022-08-23T21:53:42.181Z,3.08
2022-08-23T21:56:08.631Z,3.55
2022-08-23T21:58:34.992Z,3.10
2022-08-23T22:01:01.380Z,3.20
2022-08-23T22:03:28.522Z,3.55
2022-08-23T22:05:55.637Z,3.42
2022-08-23T22:08:22.056Z,3.83
2022-08-23T22:10:56.790Z,3.70
2022-08-23T22:13:26.141Z,2.95
2022-08-23T22:15:52.604Z,4.18
2022-08-23T22:18:19.468Z,3.35
2022-08-23T22:20:45.881Z,3.75
2022-08-23T22:23:12.280Z,3.90
2022-08-23T22:25:38.731Z,3.20
2022-08-23T22:28:05.091Z,3.78
2022-08-23T22:30:31.511Z,3.10
2022-08-23T22:32:57.871Z,3.25
2022-08-23T22:35:24.201Z,2.88
2022-08-23T22:38:12.356Z,3.30
2022-08-23T22:40:36.939Z,3.35
2022-08-23T22:43:03.408Z,3.38
2022-08-23T22:45:29.755Z,3.78
2022-08-23T22:47:56.602Z,3.42
2022-08-23T22:50:23.063Z,3.42
2022-08-23T22:52:50.765Z,3.40
2022-08-23T22:55:17.307Z,4.18
2022-08-23T22:57:43.836Z,3.83
2022-08-23T23:00:10.890Z,3.70
2022-08-23T23:02:37.919Z,4.07
2022-08-23T23:05:04.958Z,4.00
2022-08-23T23:07:49.820Z,3.70
2022-08-23T23:10:16.875Z,4.00
2022-08-23T23:12:43.212Z,3.65
2022-08-23T23:15:10.043Z,3.67
2022-08-23T23:17:36.402Z,4.20
2022-08-23T23:20:23.000Z,4.63
2022-08-23T23:22:51.282Z,3.90
2022-08-23T23:25:17.900Z,3.72
2022-08-23T23:27:44.998Z,3.80
2022-08-23T23:30:11.754Z,3.50
2022-08-23T23:32:38.179Z,4.00
2022-08-23T23:35:06.446Z,3.78
2022-08-23T23:37:33.098Z,4.38
2022-08-23T23:39:59.589Z,4.00
2022-08-23T23:42:25.987Z,3.60
2022-08-23T23:44:52.334Z,3.90
2022-08-23T23:47:18.754Z,3.85
2022-08-23T23:49:45.120Z,3.67
2022-08-23T23:52:11.484Z,3.55
2022-08-23T23:54:38.388Z,4.40
2022-08-23T23:57:05.839Z,3.90
2022-08-23T23:59:32.892Z,3.28
